sensor_id;sensor_type;location;lat;lon;timestamp;P1;durP1;ratioP1;P2;durP2;ratioP2
78169;SDS011;67412;49.892;14.490;2023-12-20T00:01:18;5.70;;;1.73;;
78169;SDS011;67412;49.892;14.490;2023-12-20T00:03:44;6.18;;;1.80;;
78169;SDS011;67412;49.892;14.490;2023-12-20T00:06:09;2.60;;;1.00;;
78169;SDS011;67412;49.892;14.490;2023-12-20T00:08:35;3.67;;;1.45;;
78169;SDS011;67412;49.892;14.490;2023-12-20T00:11:00;3.33;;;1.30;;
78169;SDS011;67412;49.892;14.490;2023-12-20T00:13:26;2.13;;;0.98;;
78169;SDS011;67412;49.892;14.490;2023-12-20T00:15:51;2.83;;;1.35;;
78169;SDS011;67412;49.892;14.490;2023-12-20T00:18:16;2.95;;;1.40;;
78169;SDS011;67412;49.892;14.490;2023-12-20T00:20:42;3.92;;;1.30;;
78169;SDS011;67412;49.892;14.490;2023-12-20T00:23:07;2.50;;;1.23;;
78169;SDS011;67412;49.892;14.490;2023-12-20T00:25:33;3.72;;;1.23;;
78169;SDS011;67412;49.892;14.490;2023-12-20T00:27:59;2.70;;;1.17;;
78169;SDS011;67412;49.892;14.490;2023-12-20T00:30:25;2.47;;;1.20;;
78169;SDS011;67412;49.892;14.490;2023-12-20T00:32:50;5.25;;;2.13;;
78169;SDS011;67412;49.892;14.490;2023-12-20T00:35:15;3.60;;;1.40;;
78169;SDS011;67412;49.892;14.490;2023-12-20T00:37:42;2.75;;;1.30;;
78169;SDS011;67412;49.892;14.490;2023-12-20T00:40:08;4.32;;;1.33;;
78169;SDS011;67412;49.892;14.490;2023-12-20T00:42:34;4.18;;;1.50;;
78169;SDS011;67412;49.892;14.490;2023-12-20T00:45:00;3.70;;;1.48;;
78169;SDS011;67412;49.892;14.490;2023-12-20T00:47:25;3.33;;;1.25;;
78169;SDS011;67412;49.892;14.490;2023-12-20T00:49:51;4.25;;;1.63;;
78169;SDS011;67412;49.892;14.490;2023-12-20T00:52:16;2.70;;;1.05;;
78169;SDS011;67412;49.892;14.490;2023-12-20T00:54:42;6.28;;;1.95;;
78169;SDS011;67412;49.892;14.490;2023-12-20T00:57:08;3.10;;;1.40;;
78169;SDS011;67412;49.892;14.490;2023-12-20T00:59:34;4.20;;;1.73;;
78169;SDS011;67412;49.892;14.490;2023-12-20T01:01:59;5.78;;;1.60;;
78169;SDS011;67412;49.892;14.490;2023-12-20T01:04:24;4.68;;;1.67;;
78169;SDS011;67412;49.892;14.490;2023-12-20T01:06:50;3.90;;;1.38;;
78169;SDS011;67412;49.892;14.490;2023-12-20T01:09:15;4.90;;;1.85;;
78169;SDS011;67412;49.892;14.490;2023-12-20T01:11:40;2.33;;;1.15;;
78169;SDS011;67412;49.892;14.490;2023-12-20T01:14:05;5.80;;;1.98;;
78169;SDS011;67412;49.892;14.490;2023-12-20T01:16:31;5.57;;;2.05;;
78169;SDS011;67412;49.892;14.490;2023-12-20T01:18:56;6.88;;;1.98;;
78169;SDS011;67412;49.892;14.490;2023-12-20T01:21:21;4.80;;;1.70;;
78169;SDS011;67412;49.892;14.490;2023-12-20T01:23:47;3.13;;;1.63;;
78169;SDS011;67412;49.892;14.490;2023-12-20T01:26:12;4.03;;;1.58;;
78169;SDS011;67412;49.892;14.490;2023-12-20T01:28:38;3.17;;;1.30;;
78169;SDS011;67412;49.892;14.490;2023-12-20T01:31:03;4.72;;;1.25;;
78169;SDS011;67412;49.892;14.490;2023-12-20T01:33:29;2.88;;;1.25;;
78169;SDS011;67412;49.892;14.490;2023-12-20T01:35:54;3.20;;;1.52;;
78169;SDS011;67412;49.892;14.490;2023-12-20T01:38:20;3.45;;;1.23;;
78169;SDS011;67412;49.892;14.490;2023-12-20T01:40:45;4.50;;;1.60;;
78169;SDS011;67412;49.892;14.490;2023-12-20T01:43:10;2.40;;;1.27;;
78169;SDS011;67412;49.892;14.490;2023-12-20T01:45:37;5.03;;;1.73;;
78169;SDS011;67412;49.892;14.490;2023-12-20T01:48:03;5.70;;;2.70;;
78169;SDS011;67412;49.892;14.490;2023-12-20T01:50:30;5.22;;;2.05;;
78169;SDS011;67412;49.892;14.490;2023-12-20T01:52:57;4.50;;;1.50;;
78169;SDS011;67412;49.892;14.490;2023-12-20T01:55:25;4.43;;;1.75;;
78169;SDS011;67412;49.892;14.490;2023-12-20T01:57:54;5.90;;;1.80;;
78169;SDS011;67412;49.892;14.490;2023-12-20T02:00:19;3.20;;;1.40;;
78169;SDS011;67412;49.892;14.490;2023-12-20T02:02:48;5.50;;;1.80;;
78169;SDS011;67412;49.892;14.490;2023-12-20T02:05:15;4.78;;;1.65;;
78169;SDS011;67412;49.892;14.490;2023-12-20T02:07:41;5.63;;;2.05;;
78169;SDS011;67412;49.892;14.490;2023-12-20T02:10:07;5.32;;;1.40;;
78169;SDS011;67412;49.892;14.490;2023-12-20T02:12:33;3.88;;;1.40;;
78169;SDS011;67412;49.892;14.490;2023-12-20T02:14:58;5.40;;;1.70;;
78169;SDS011;67412;49.892;14.490;2023-12-20T02:17:24;2.60;;;1.15;;
78169;SDS011;67412;49.892;14.490;2023-12-20T02:19:50;4.63;;;1.83;;
78169;SDS011;67412;49.892;14.490;2023-12-20T02:22:15;4.63;;;1.33;;
78169;SDS011;67412;49.892;14.490;2023-12-20T02:24:41;2.83;;;1.17;;
78169;SDS011;67412;49.892;14.490;2023-12-20T02:27:07;4.43;;;1.50;;
78169;SDS011;67412;49.892;14.490;2023-12-20T02:29:33;4.53;;;1.48;;
78169;SDS011;67412;49.892;14.490;2023-12-20T02:31:59;5.40;;;1.48;;
78169;SDS011;67412;49.892;14.490;2023-12-20T02:34:25;4.93;;;1.55;;
78169;SDS011;67412;49.892;14.490;2023-12-20T02:36:50;4.45;;;1.80;;
78169;SDS011;67412;49.892;14.490;2023-12-20T02:39:16;4.35;;;1.73;;
78169;SDS011;67412;49.892;14.490;2023-12-20T02:41:41;4.95;;;1.77;;
78169;SDS011;67412;49.892;14.490;2023-12-20T02:44:07;4.22;;;1.60;;
78169;SDS011;67412;49.892;14.490;2023-12-20T02:46:32;5.18;;;1.83;;
78169;SDS011;67412;49.892;14.490;2023-12-20T02:48:58;5.78;;;1.80;;
78169;SDS011;67412;49.892;14.490;2023-12-20T02:51:23;2.88;;;1.05;;
78169;SDS011;67412;49.892;14.490;2023-12-20T02:53:48;3.42;;;1.40;;
78169;SDS011;67412;49.892;14.490;2023-12-20T02:56:14;5.18;;;1.80;;
78169;SDS011;67412;49.892;14.490;2023-12-20T02:58:39;2.72;;;1.42;;
78169;SDS011;67412;49.892;14.490;2023-12-20T03:01:05;4.05;;;1.58;;
78169;SDS011;67412;49.892;14.490;2023-12-20T03:03:30;3.95;;;1.38;;
78169;SDS011;67412;49.892;14.490;2023-12-20T03:05:56;4.80;;;1.42;;
78169;SDS011;67412;49.892;14.490;2023-12-20T03:08:21;4.75;;;1.77;;
78169;SDS011;67412;49.892;14.490;2023-12-20T03:10:46;3.20;;;1.42;;
78169;SDS011;67412;49.892;14.490;2023-12-20T03:13:12;2.75;;;1.27;;
78169;SDS011;67412;49.892;14.490;2023-12-20T03:15:37;3.85;;;1.42;;
78169;SDS011;67412;49.892;14.490;2023-12-20T03:18:02;3.70;;;1.40;;
78169;SDS011;67412;49.892;14.490;2023-12-20T03:20:28;4.15;;;1.58;;
78169;SDS011;67412;49.892;14.490;2023-12-20T03:22:53;4.30;;;1.33;;
78169;SDS011;67412;49.892;14.490;2023-12-20T03:25:19;4.90;;;1.30;;
78169;SDS011;67412;49.892;14.490;2023-12-20T03:27:44;4.15;;;1.60;;
78169;SDS011;67412;49.892;14.490;2023-12-20T03:30:09;3.60;;;1.25;;
78169;SDS011;67412;49.892;14.490;2023-12-20T03:32:35;5.43;;;1.80;;
78169;SDS011;67412;49.892;14.490;2023-12-20T03:37:27;3.42;;;1.27;;
78169;SDS011;67412;49.892;14.490;2023-12-20T03:39:53;3.67;;;1.13;;
78169;SDS011;67412;49.892;14.490;2023-12-20T03:42:18;2.97;;;1.20;;
78169;SDS011;67412;49.892;14.490;2023-12-20T03:44:43;1.40;;;0.88;;
78169;SDS011;67412;49.892;14.490;2023-12-20T03:47:09;3.13;;;1.08;;
78169;SDS011;67412;49.892;14.490;2023-12-20T03:49:34;1.42;;;0.75;;
78169;SDS011;67412;49.892;14.490;2023-12-20T03:52:02;1.33;;;0.63;;
78169;SDS011;67412;49.892;14.490;2023-12-20T03:54:28;3.40;;;1.15;;
78169;SDS011;67412;49.892;14.490;2023-12-20T03:56:53;2.60;;;1.00;;
78169;SDS011;67412;49.892;14.490;2023-12-20T03:59:18;3.05;;;0.90;;
78169;SDS011;67412;49.892;14.490;2023-12-20T04:01:44;1.98;;;0.88;;
78169;SDS011;67412;49.892;14.490;2023-12-20T04:04:10;2.00;;;0.77;;
78169;SDS011;67412;49.892;14.490;2023-12-20T04:06:35;2.53;;;1.02;;
78169;SDS011;67412;49.892;14.490;2023-12-20T04:09:01;3.10;;;1.13;;
78169;SDS011;67412;49.892;14.490;2023-12-20T04:11:26;2.90;;;1.10;;
78169;SDS011;67412;49.892;14.490;2023-12-20T04:13:52;3.10;;;1.27;;
78169;SDS011;67412;49.892;14.490;2023-12-20T04:16:17;3.47;;;1.35;;
78169;SDS011;67412;49.892;14.490;2023-12-20T04:18:42;1.88;;;0.90;;
78169;SDS011;67412;49.892;14.490;2023-12-20T04:21:07;3.28;;;0.60;;
78169;SDS011;67412;49.892;14.490;2023-12-20T04:23:33;1.98;;;1.00;;
78169;SDS011;67412;49.892;14.490;2023-12-20T04:25:58;1.67;;;0.80;;
78169;SDS011;67412;49.892;14.490;2023-12-20T04:28:23;3.10;;;0.95;;
78169;SDS011;67412;49.892;14.490;2023-12-20T04:30:49;3.47;;;0.95;;
78169;SDS011;67412;49.892;14.490;2023-12-20T04:33:14;1.92;;;0.77;;
78169;SDS011;67412;49.892;14.490;2023-12-20T04:35:39;3.15;;;0.93;;
78169;SDS011;67412;49.892;14.490;2023-12-20T04:38:06;1.17;;;0.60;;
78169;SDS011;67412;49.892;14.490;2023-12-20T04:40:31;5.00;;;0.93;;
78169;SDS011;67412;49.892;14.490;2023-12-20T04:42:57;1.73;;;0.70;;
78169;SDS011;67412;49.892;14.490;2023-12-20T04:45:22;4.05;;;1.30;;
78169;SDS011;67412;49.892;14.490;2023-12-20T04:50:15;1.23;;;0.70;;
78169;SDS011;67412;49.892;14.490;2023-12-20T04:52:40;1.48;;;0.93;;
78169;SDS011;67412;49.892;14.490;2023-12-20T04:55:06;3.15;;;0.98;;
78169;SDS011;67412;49.892;14.490;2023-12-20T04:57:31;2.58;;;0.70;;
78169;SDS011;67412;49.892;14.490;2023-12-20T04:59:57;3.80;;;1.17;;
78169;SDS011;67412;49.892;14.490;2023-12-20T05:02:22;1.38;;;0.80;;
78169;SDS011;67412;49.892;14.490;2023-12-20T05:04:48;2.97;;;1.00;;
78169;SDS011;67412;49.892;14.490;2023-12-20T05:07:13;4.53;;;1.02;;
78169;SDS011;67412;49.892;14.490;2023-12-20T05:09:38;3.00;;;1.13;;
78169;SDS011;67412;49.892;14.490;2023-12-20T05:12:04;2.83;;;1.02;;
78169;SDS011;67412;49.892;14.490;2023-12-20T05:14:30;2.38;;;0.80;;
78169;SDS011;67412;49.892;14.490;2023-12-20T05:16:56;1.85;;;0.73;;
78169;SDS011;67412;49.892;14.490;2023-12-20T05:19:21;5.13;;;1.40;;
78169;SDS011;67412;49.892;14.490;2023-12-20T05:21:47;3.08;;;0.93;;
78169;SDS011;67412;49.892;14.490;2023-12-20T05:24:12;1.48;;;0.45;;
78169;SDS011;67412;49.892;14.490;2023-12-20T05:26:37;1.30;;;0.80;;
78169;SDS011;67412;49.892;14.490;2023-12-20T05:29:03;3.40;;;1.13;;
78169;SDS011;67412;49.892;14.490;2023-12-20T05:31:28;2.53;;;0.82;;
78169;SDS011;67412;49.892;14.490;2023-12-20T05:33:53;2.08;;;0.55;;
78169;SDS011;67412;49.892;14.490;2023-12-20T05:36:19;1.83;;;0.75;;
78169;SDS011;67412;49.892;14.490;2023-12-20T05:38:44;2.88;;;1.00;;
78169;SDS011;67412;49.892;14.490;2023-12-20T05:41:10;2.92;;;0.60;;
78169;SDS011;67412;49.892;14.490;2023-12-20T05:43:35;2.53;;;1.00;;
78169;SDS011;67412;49.892;14.490;2023-12-20T05:46:00;1.60;;;0.85;;
78169;SDS011;67412;49.892;14.490;2023-12-20T05:48:26;2.30;;;0.80;;
78169;SDS011;67412;49.892;14.490;2023-12-20T05:50:52;1.42;;;0.77;;
78169;SDS011;67412;49.892;14.490;2023-12-20T05:53:17;2.63;;;0.90;;
78169;SDS011;67412;49.892;14.490;2023-12-20T05:55:43;1.23;;;0.50;;
78169;SDS011;67412;49.892;14.490;2023-12-20T05:58:08;1.65;;;0.65;;
78169;SDS011;67412;49.892;14.490;2023-12-20T06:00:34;2.25;;;0.75;;
78169;SDS011;67412;49.892;14.490;2023-12-20T06:02:59;0.98;;;0.50;;
78169;SDS011;67412;49.892;14.490;2023-12-20T06:05:24;2.80;;;0.52;;
78169;SDS011;67412;49.892;14.490;2023-12-20T06:07:50;1.25;;;0.63;;
78169;SDS011;67412;49.892;14.490;2023-12-20T06:10:15;2.22;;;0.80;;
78169;SDS011;67412;49.892;14.490;2023-12-20T06:12:41;2.83;;;0.98;;
78169;SDS011;67412;49.892;14.490;2023-12-20T06:15:07;1.85;;;0.73;;
78169;SDS011;67412;49.892;14.490;2023-12-20T06:17:32;1.42;;;0.50;;
78169;SDS011;67412;49.892;14.490;2023-12-20T06:19:57;0.98;;;0.60;;
78169;SDS011;67412;49.892;14.490;2023-12-20T06:22:23;1.23;;;0.40;;
78169;SDS011;67412;49.892;14.490;2023-12-20T06:24:48;2.70;;;0.80;;
78169;SDS011;67412;49.892;14.490;2023-12-20T06:27:13;1.55;;;0.80;;
78169;SDS011;67412;49.892;14.490;2023-12-20T06:29:39;2.78;;;0.82;;
78169;SDS011;67412;49.892;14.490;2023-12-20T06:32:06;1.45;;;0.40;;
78169;SDS011;67412;49.892;14.490;2023-12-20T06:34:31;2.08;;;0.75;;
78169;SDS011;67412;49.892;14.490;2023-12-20T06:36:56;1.40;;;0.60;;
78169;SDS011;67412;49.892;14.490;2023-12-20T06:39:22;3.10;;;1.05;;
78169;SDS011;67412;49.892;14.490;2023-12-20T06:41:47;3.55;;;1.08;;
78169;SDS011;67412;49.892;14.490;2023-12-20T06:44:12;2.67;;;0.75;;
78169;SDS011;67412;49.892;14.490;2023-12-20T06:46:38;2.20;;;0.80;;
78169;SDS011;67412;49.892;14.490;2023-12-20T06:49:03;1.95;;;0.80;;
78169;SDS011;67412;49.892;14.490;2023-12-20T06:51:28;1.75;;;0.50;;
78169;SDS011;67412;49.892;14.490;2023-12-20T06:53:55;1.55;;;0.40;;
78169;SDS011;67412;49.892;14.490;2023-12-20T06:56:21;2.30;;;0.73;;
78169;SDS011;67412;49.892;14.490;2023-12-20T06:58:46;1.60;;;0.50;;
78169;SDS011;67412;49.892;14.490;2023-12-20T07:01:15;0.68;;;0.40;;
78169;SDS011;67412;49.892;14.490;2023-12-20T07:03:41;1.63;;;0.73;;
78169;SDS011;67412;49.892;14.490;2023-12-20T07:06:07;3.00;;;0.80;;
78169;SDS011;67412;49.892;14.490;2023-12-20T07:08:33;1.15;;;0.28;;
78169;SDS011;67412;49.892;14.490;2023-12-20T07:10:58;2.17;;;0.60;;
78169;SDS011;67412;49.892;14.490;2023-12-20T07:13:23;1.52;;;0.70;;
78169;SDS011;67412;49.892;14.490;2023-12-20T07:15:49;2.47;;;0.60;;
78169;SDS011;67412;49.892;14.490;2023-12-20T07:18:15;2.70;;;0.45;;
78169;SDS011;67412;49.892;14.490;2023-12-20T07:20:40;2.13;;;0.77;;
78169;SDS011;67412;49.892;14.490;2023-12-20T07:23:05;1.23;;;0.57;;
78169;SDS011;67412;49.892;14.490;2023-12-20T07:25:31;0.93;;;0.50;;
78169;SDS011;67412;49.892;14.490;2023-12-20T07:27:59;1.05;;;0.32;;
78169;SDS011;67412;49.892;14.490;2023-12-20T07:30:24;1.38;;;0.63;;
78169;SDS011;67412;49.892;14.490;2023-12-20T07:32:49;0.75;;;0.40;;
78169;SDS011;67412;49.892;14.490;2023-12-20T07:35:15;2.67;;;0.50;;
78169;SDS011;67412;49.892;14.490;2023-12-20T07:37:41;3.17;;;0.70;;
78169;SDS011;67412;49.892;14.490;2023-12-20T07:40:06;2.38;;;0.45;;
78169;SDS011;67412;49.892;14.490;2023-12-20T07:42:33;1.40;;;0.60;;
78169;SDS011;67412;49.892;14.490;2023-12-20T07:44:58;2.20;;;0.30;;
78169;SDS011;67412;49.892;14.490;2023-12-20T07:47:23;1.83;;;0.70;;
78169;SDS011;67412;49.892;14.490;2023-12-20T07:49:50;2.03;;;0.60;;
78169;SDS011;67412;49.892;14.490;2023-12-20T07:52:17;0.82;;;0.50;;
78169;SDS011;67412;49.892;14.490;2023-12-20T07:54:43;0.88;;;0.50;;
78169;SDS011;67412;49.892;14.490;2023-12-20T07:57:09;1.58;;;0.60;;
78169;SDS011;67412;49.892;14.490;2023-12-20T07:59:35;1.40;;;0.43;;
78169;SDS011;67412;49.892;14.490;2023-12-20T08:02:01;0.95;;;0.55;;
78169;SDS011;67412;49.892;14.490;2023-12-20T08:04:26;0.68;;;0.35;;
78169;SDS011;67412;49.892;14.490;2023-12-20T08:06:52;0.82;;;0.43;;
78169;SDS011;67412;49.892;14.490;2023-12-20T08:09:17;0.95;;;0.55;;
78169;SDS011;67412;49.892;14.490;2023-12-20T08:11:46;2.30;;;0.65;;
78169;SDS011;67412;49.892;14.490;2023-12-20T08:14:11;0.68;;;0.38;;
78169;SDS011;67412;49.892;14.490;2023-12-20T08:16:37;1.83;;;0.50;;
78169;SDS011;67412;49.892;14.490;2023-12-20T08:19:02;0.60;;;0.40;;
78169;SDS011;67412;49.892;14.490;2023-12-20T08:21:27;2.15;;;0.65;;
78169;SDS011;67412;49.892;14.490;2023-12-20T08:23:53;1.55;;;0.65;;
78169;SDS011;67412;49.892;14.490;2023-12-20T08:26:18;0.82;;;0.40;;
78169;SDS011;67412;49.892;14.490;2023-12-20T08:28:49;0.15;;;0.13;;
78169;SDS011;67412;49.892;14.490;2023-12-20T08:31:15;0.20;;;0.20;;
78169;SDS011;67412;49.892;14.490;2023-12-20T08:33:43;1.38;;;0.50;;
78169;SDS011;67412;49.892;14.490;2023-12-20T08:36:09;0.30;;;0.30;;
78169;SDS011;67412;49.892;14.490;2023-12-20T08:38:34;0.68;;;0.30;;
78169;SDS011;67412;49.892;14.490;2023-12-20T08:40:59;1.75;;;0.30;;
78169;SDS011;67412;49.892;14.490;2023-12-20T08:43:26;1.58;;;0.52;;
78169;SDS011;67412;49.892;14.490;2023-12-20T08:45:51;1.27;;;0.60;;
78169;SDS011;67412;49.892;14.490;2023-12-20T08:48:16;0.57;;;0.25;;
78169;SDS011;67412;49.892;14.490;2023-12-20T08:50:42;2.03;;;0.50;;
78169;SDS011;67412;49.892;14.490;2023-12-20T08:53:08;0.55;;;0.28;;
78169;SDS011;67412;49.892;14.490;2023-12-20T08:55:33;2.15;;;0.47;;
78169;SDS011;67412;49.892;14.490;2023-12-20T08:57:59;1.33;;;0.60;;
78169;SDS011;67412;49.892;14.490;2023-12-20T09:00:24;1.15;;;0.43;;
78169;SDS011;67412;49.892;14.490;2023-12-20T09:02:52;1.10;;;0.70;;
78169;SDS011;67412;49.892;14.490;2023-12-20T09:05:18;0.32;;;0.32;;
78169;SDS011;67412;49.892;14.490;2023-12-20T09:07:43;1.13;;;0.65;;
78169;SDS011;67412;49.892;14.490;2023-12-20T09:10:08;2.40;;;0.68;;
78169;SDS011;67412;49.892;14.490;2023-12-20T09:12:34;2.33;;;0.70;;
78169;SDS011;67412;49.892;14.490;2023-12-20T09:14:59;1.73;;;0.70;;
78169;SDS011;67412;49.892;14.490;2023-12-20T09:17:27;1.75;;;0.68;;
78169;SDS011;67412;49.892;14.490;2023-12-20T09:19:52;1.48;;;0.55;;
78169;SDS011;67412;49.892;14.490;2023-12-20T09:22:19;1.05;;;0.63;;
78169;SDS011;67412;49.892;14.490;2023-12-20T09:24:44;2.17;;;0.80;;
78169;SDS011;67412;49.892;14.490;2023-12-20T09:27:09;3.67;;;0.75;;
78169;SDS011;67412;49.892;14.490;2023-12-20T09:29:35;2.80;;;0.60;;
78169;SDS011;67412;49.892;14.490;2023-12-20T09:32:00;4.47;;;0.85;;
78169;SDS011;67412;49.892;14.490;2023-12-20T09:34:26;2.70;;;0.68;;
78169;SDS011;67412;49.892;14.490;2023-12-20T09:36:52;2.20;;;0.90;;
78169;SDS011;67412;49.892;14.490;2023-12-20T09:39:18;2.50;;;0.65;;
78169;SDS011;67412;49.892;14.490;2023-12-20T09:41:46;2.78;;;0.90;;
78169;SDS011;67412;49.892;14.490;2023-12-20T09:44:25;1.67;;;0.90;;
78169;SDS011;67412;49.892;14.490;2023-12-20T09:46:51;1.17;;;0.40;;
78169;SDS011;67412;49.892;14.490;2023-12-20T09:49:19;0.60;;;0.50;;
78169;SDS011;67412;49.892;14.490;2023-12-20T09:51:46;1.30;;;0.47;;
78169;SDS011;67412;49.892;14.490;2023-12-20T09:54:12;1.13;;;0.65;;
78169;SDS011;67412;49.892;14.490;2023-12-20T09:56:39;1.02;;;0.50;;
78169;SDS011;67412;49.892;14.490;2023-12-20T09:59:04;0.95;;;0.45;;
78169;SDS011;67412;49.892;14.490;2023-12-20T10:01:30;1.52;;;0.50;;
78169;SDS011;67412;49.892;14.490;2023-12-20T10:03:56;0.90;;;0.45;;
78169;SDS011;67412;49.892;14.490;2023-12-20T10:06:23;1.25;;;0.47;;
78169;SDS011;67412;49.892;14.490;2023-12-20T10:08:49;1.27;;;0.40;;
78169;SDS011;67412;49.892;14.490;2023-12-20T10:11:14;2.08;;;0.60;;
78169;SDS011;67412;49.892;14.490;2023-12-20T10:13:40;0.55;;;0.38;;
78169;SDS011;67412;49.892;14.490;2023-12-20T10:16:06;1.33;;;0.40;;
78169;SDS011;67412;49.892;14.490;2023-12-20T10:18:32;0.88;;;0.30;;
78169;SDS011;67412;49.892;14.490;2023-12-20T10:20:58;2.17;;;0.93;;
78169;SDS011;67412;49.892;14.490;2023-12-20T10:23:24;0.38;;;0.38;;
78169;SDS011;67412;49.892;14.490;2023-12-20T10:25:57;0.40;;;0.20;;
78169;SDS011;67412;49.892;14.490;2023-12-20T10:28:25;0.73;;;0.40;;
78169;SDS011;67412;49.892;14.490;2023-12-20T10:30:53;0.10;;;0.10;;
78169;SDS011;67412;49.892;14.490;2023-12-20T10:33:28;2.88;;;1.10;;
78169;SDS011;67412;49.892;14.490;2023-12-20T10:35:55;1.90;;;0.52;;
78169;SDS011;67412;49.892;14.490;2023-12-20T10:38:21;1.08;;;0.35;;
78169;SDS011;67412;49.892;14.490;2023-12-20T10:40:47;1.17;;;0.35;;
78169;SDS011;67412;49.892;14.490;2023-12-20T10:43:12;1.05;;;0.55;;
78169;SDS011;67412;49.892;14.490;2023-12-20T10:45:38;0.63;;;0.32;;
78169;SDS011;67412;49.892;14.490;2023-12-20T10:48:04;0.45;;;0.35;;
78169;SDS011;67412;49.892;14.490;2023-12-20T10:50:31;9.80;;;3.05;;
78169;SDS011;67412;49.892;14.490;2023-12-20T10:52:57;1.77;;;0.70;;
78169;SDS011;67412;49.892;14.490;2023-12-20T10:55:23;1.58;;;0.77;;
78169;SDS011;67412;49.892;14.490;2023-12-20T10:57:50;0.93;;;0.50;;
78169;SDS011;67412;49.892;14.490;2023-12-20T11:00:17;3.33;;;1.13;;
78169;SDS011;67412;49.892;14.490;2023-12-20T11:02:43;1.05;;;0.40;;
78169;SDS011;67412;49.892;14.490;2023-12-20T11:08:07;1.20;;;0.40;;
78169;SDS011;67412;49.892;14.490;2023-12-20T11:10:58;1.55;;;0.52;;
78169;SDS011;67412;49.892;14.490;2023-12-20T11:16:19;1.50;;;0.47;;
78169;SDS011;67412;49.892;14.490;2023-12-20T11:18:45;0.95;;;0.50;;
78169;SDS011;67412;49.892;14.490;2023-12-20T11:21:10;0.32;;;0.22;;
78169;SDS011;67412;49.892;14.490;2023-12-20T11:23:36;1.00;;;0.50;;
78169;SDS011;67412;49.892;14.490;2023-12-20T11:26:01;0.65;;;0.32;;
78169;SDS011;67412;49.892;14.490;2023-12-20T11:28:28;2.63;;;0.90;;
78169;SDS011;67412;49.892;14.490;2023-12-20T11:30:55;1.08;;;0.43;;
78169;SDS011;67412;49.892;14.490;2023-12-20T11:33:26;0.55;;;0.40;;
78169;SDS011;67412;49.892;14.490;2023-12-20T11:35:55;0.73;;;0.43;;
78169;SDS011;67412;49.892;14.490;2023-12-20T11:38:21;0.93;;;0.55;;
78169;SDS011;67412;49.892;14.490;2023-12-20T11:40:48;1.17;;;0.50;;
78169;SDS011;67412;49.892;14.490;2023-12-20T11:46:02;1.85;;;0.43;;
78169;SDS011;67412;49.892;14.490;2023-12-20T11:48:31;0.55;;;0.20;;
78169;SDS011;67412;49.892;14.490;2023-12-20T11:50:57;0.60;;;0.47;;
78169;SDS011;67412;49.892;14.490;2023-12-20T11:53:23;1.75;;;0.60;;
78169;SDS011;67412;49.892;14.490;2023-12-20T11:55:49;1.08;;;0.65;;
78169;SDS011;67412;49.892;14.490;2023-12-20T11:58:14;0.82;;;0.73;;
78169;SDS011;67412;49.892;14.490;2023-12-20T12:00:41;1.42;;;0.73;;
78169;SDS011;67412;49.892;14.490;2023-12-20T12:03:08;1.95;;;0.77;;
78169;SDS011;67412;49.892;14.490;2023-12-20T12:05:34;2.13;;;0.65;;
78169;SDS011;67412;49.892;14.490;2023-12-20T12:08:00;2.50;;;0.90;;
78169;SDS011;67412;49.892;14.490;2023-12-20T12:10:26;2.90;;;0.80;;
78169;SDS011;67412;49.892;14.490;2023-12-20T12:12:51;2.70;;;0.95;;
78169;SDS011;67412;49.892;14.490;2023-12-20T12:15:17;2.40;;;0.88;;
78169;SDS011;67412;49.892;14.490;2023-12-20T12:17:42;3.05;;;1.10;;
78169;SDS011;67412;49.892;14.490;2023-12-20T12:20:08;6.30;;;1.10;;
78169;SDS011;67412;49.892;14.490;2023-12-20T12:22:35;3.13;;;1.00;;
78169;SDS011;67412;49.892;14.490;2023-12-20T12:25:11;3.78;;;1.30;;
78169;SDS011;67412;49.892;14.490;2023-12-20T12:27:39;1.65;;;0.70;;
78169;SDS011;67412;49.892;14.490;2023-12-20T12:30:05;1.60;;;0.55;;
78169;SDS011;67412;49.892;14.490;2023-12-20T12:32:34;0.90;;;0.57;;
78169;SDS011;67412;49.892;14.490;2023-12-20T12:35:00;1.58;;;0.63;;
78169;SDS011;67412;49.892;14.490;2023-12-20T12:37:25;1.63;;;0.55;;
78169;SDS011;67412;49.892;14.490;2023-12-20T12:39:53;1.48;;;0.88;;
78169;SDS011;67412;49.892;14.490;2023-12-20T12:42:18;1.85;;;0.57;;
78169;SDS011;67412;49.892;14.490;2023-12-20T12:44:44;0.98;;;0.63;;
78169;SDS011;67412;49.892;14.490;2023-12-20T12:47:09;2.85;;;0.80;;
78169;SDS011;67412;49.892;14.490;2023-12-20T12:49:34;1.92;;;0.90;;
78169;SDS011;67412;49.892;14.490;2023-12-20T12:52:00;1.80;;;0.65;;
78169;SDS011;67412;49.892;14.490;2023-12-20T12:54:25;3.13;;;0.90;;
78169;SDS011;67412;49.892;14.490;2023-12-20T12:56:50;1.23;;;0.80;;
78169;SDS011;67412;49.892;14.490;2023-12-20T12:59:17;2.45;;;0.88;;
78169;SDS011;67412;49.892;14.490;2023-12-20T13:01:43;1.30;;;0.50;;
78169;SDS011;67412;49.892;14.490;2023-12-20T13:04:08;2.05;;;0.60;;
78169;SDS011;67412;49.892;14.490;2023-12-20T13:06:36;3.63;;;0.63;;
78169;SDS011;67412;49.892;14.490;2023-12-20T13:09:03;1.15;;;0.47;;
78169;SDS011;67412;49.892;14.490;2023-12-20T13:11:29;1.58;;;0.65;;
78169;SDS011;67412;49.892;14.490;2023-12-20T13:13:56;1.02;;;0.60;;
78169;SDS011;67412;49.892;14.490;2023-12-20T13:16:22;0.80;;;0.40;;
78169;SDS011;67412;49.892;14.490;2023-12-20T13:18:49;1.67;;;0.75;;
78169;SDS011;67412;49.892;14.490;2023-12-20T13:21:15;3.58;;;0.93;;
78169;SDS011;67412;49.892;14.490;2023-12-20T13:23:40;1.73;;;0.77;;
78169;SDS011;67412;49.892;14.490;2023-12-20T13:26:05;1.48;;;0.60;;
78169;SDS011;67412;49.892;14.490;2023-12-20T13:28:32;2.25;;;0.70;;
78169;SDS011;67412;49.892;14.490;2023-12-20T13:30:57;2.10;;;0.77;;
78169;SDS011;67412;49.892;14.490;2023-12-20T13:33:22;0.88;;;0.50;;
78169;SDS011;67412;49.892;14.490;2023-12-20T13:35:48;0.73;;;0.55;;
78169;SDS011;67412;49.892;14.490;2023-12-20T13:38:13;1.23;;;0.50;;
78169;SDS011;67412;49.892;14.490;2023-12-20T13:40:39;3.15;;;0.40;;
78169;SDS011;67412;49.892;14.490;2023-12-20T13:43:05;2.67;;;0.70;;
78169;SDS011;67412;49.892;14.490;2023-12-20T13:45:31;2.95;;;0.47;;
78169;SDS011;67412;49.892;14.490;2023-12-20T13:47:56;2.38;;;0.70;;
78169;SDS011;67412;49.892;14.490;2023-12-20T13:50:22;1.92;;;0.80;;
78169;SDS011;67412;49.892;14.490;2023-12-20T13:52:47;2.25;;;0.75;;
78169;SDS011;67412;49.892;14.490;2023-12-20T13:55:13;3.00;;;0.80;;
78169;SDS011;67412;49.892;14.490;2023-12-20T13:57:38;1.25;;;0.40;;
78169;SDS011;67412;49.892;14.490;2023-12-20T14:00:05;1.35;;;0.85;;
78169;SDS011;67412;49.892;14.490;2023-12-20T14:02:31;3.45;;;0.85;;
78169;SDS011;67412;49.892;14.490;2023-12-20T14:04:56;1.88;;;0.60;;
78169;SDS011;67412;49.892;14.490;2023-12-20T14:07:21;2.28;;;0.60;;
78169;SDS011;67412;49.892;14.490;2023-12-20T14:09:47;3.03;;;0.80;;
78169;SDS011;67412;49.892;14.490;2023-12-20T14:12:12;3.28;;;1.15;;
78169;SDS011;67412;49.892;14.490;2023-12-20T14:14:38;1.45;;;0.70;;
78169;SDS011;67412;49.892;14.490;2023-12-20T14:17:03;0.35;;;0.35;;
78169;SDS011;67412;49.892;14.490;2023-12-20T14:19:31;2.75;;;0.60;;
78169;SDS011;67412;49.892;14.490;2023-12-20T14:21:57;0.50;;;0.38;;
78169;SDS011;67412;49.892;14.490;2023-12-20T14:24:26;1.13;;;0.70;;
78169;SDS011;67412;49.892;14.490;2023-12-20T14:26:52;1.27;;;0.55;;
78169;SDS011;67412;49.892;14.490;2023-12-20T14:29:18;2.10;;;0.77;;
78169;SDS011;67412;49.892;14.490;2023-12-20T14:31:43;3.00;;;0.88;;
78169;SDS011;67412;49.892;14.490;2023-12-20T14:34:08;2.40;;;0.68;;
78169;SDS011;67412;49.892;14.490;2023-12-20T14:36:34;1.60;;;0.50;;
78169;SDS011;67412;49.892;14.490;2023-12-20T14:39:00;2.55;;;0.85;;